createdAt,value
2019-06-27T00:00:37.940Z,100332.23
2019-06-27T00:03:05.681Z,100351.40
2019-06-27T00:05:32.352Z,100348.72
2019-06-27T00:07:58.785Z,100349.15
2019-06-27T00:10:25.425Z,100345.95
2019-06-27T00:12:51.758Z,100354.61
2019-06-27T00:15:18.096Z,100349.33
2019-06-27T00:17:45.746Z,100354.09
2019-06-27T00:20:12.163Z,100351.00
2019-06-27T00:22:41.068Z,100352.55
2019-06-27T00:25:07.539Z,100349.15
2019-06-27T00:27:33.888Z,100357.90
2019-06-27T00:30:00.243Z,100355.41
2019-06-27T00:32:26.982Z,100362.52
2019-06-27T00:34:53.336Z,100366.96
2019-06-27T00:37:19.638Z,100363.47
2019-06-27T00:39:46.121Z,100366.16
2019-06-27T00:42:12.436Z,100356.63
2019-06-27T00:44:39.202Z,100364.98
2019-06-27T00:47:05.512Z,100366.92
2019-06-27T00:49:31.938Z,100370.02
2019-06-27T00:51:58.657Z,100366.73
2019-06-27T00:54:24.985Z,100373.20
2019-06-27T00:56:51.518Z,100369.80
2019-06-27T00:59:18.188Z,100376.71
2019-06-27T01:01:44.527Z,100367.87
2019-06-27T01:04:10.952Z,100366.78
2019-06-27T01:06:37.675Z,100376.42
2019-06-27T01:09:05.452Z,100373.97
2019-06-27T01:11:32.179Z,100384.12
2019-06-27T01:13:59.035Z,100371.41
2019-06-27T01:16:25.338Z,100373.97
2019-06-27T01:18:51.739Z,100375.16
2019-06-27T01:21:18.074Z,100369.97
2019-06-27T01:23:45.200Z,100367.08
2019-06-27T01:26:11.658Z,100370.58
2019-06-27T01:28:37.979Z,100370.57
2019-06-27T01:31:04.345Z,100376.26
2019-06-27T01:33:30.662Z,100369.17
2019-06-27T01:35:57.116Z,100376.08
2019-06-27T01:38:23.459Z,100379.91
2019-06-27T01:40:49.890Z,100388.86
2019-06-27T01:43:16.201Z,100386.31
2019-06-27T01:45:54.249Z,100387.04
2019-06-27T01:48:20.580Z,100393.07
2019-06-27T01:50:46.971Z,100396.02
2019-06-27T01:53:13.372Z,100395.77
2019-06-27T01:55:39.711Z,100396.66
2019-06-27T01:58:06.063Z,100394.85
2019-06-27T02:00:32.399Z,100395.23
2019-06-27T02:02:59.930Z,100401.85
2019-06-27T02:05:26.839Z,100399.39
2019-06-27T02:07:53.301Z,100403.41
2019-06-27T02:10:20.355Z,100401.05
2019-06-27T02:12:46.711Z,100400.66
2019-06-27T02:15:13.850Z,100406.52
2019-06-27T02:17:40.208Z,100407.05
2019-06-27T02:20:08.368Z,100410.09
2019-06-27T02:22:34.720Z,100406.86
2019-06-27T02:25:01.155Z,100417.26
2019-06-27T02:27:27.588Z,100410.17
2019-06-27T02:29:53.929Z,100416.49
2019-06-27T02:32:21.543Z,100413.59
2019-06-27T02:34:47.914Z,100416.75
2019-06-27T02:37:14.662Z,100424.03
2019-06-27T02:39:42.351Z,100408.36
2019-06-27T02:42:08.681Z,100410.73
2019-06-27T02:44:35.310Z,100407.31
2019-06-27T02:47:01.688Z,100411.86
2019-06-27T02:49:28.038Z,100406.20
2019-06-27T02:51:54.508Z,100401.62
2019-06-27T02:54:20.868Z,100412.39
2019-06-27T02:56:47.214Z,100408.87
2019-06-27T02:59:13.564Z,100416.28
2019-06-27T03:01:39.954Z,100406.53
2019-06-27T03:04:06.569Z,100412.39
2019-06-27T03:06:32.908Z,100416.27
2019-06-27T03:08:59.217Z,100420.94
2019-06-27T03:11:25.530Z,100419.91
2019-06-27T03:13:51.860Z,100422.60
2019-06-27T03:16:18.524Z,100424.77
2019-06-27T03:18:44.927Z,100420.43
2019-06-27T03:21:11.285Z,100423.31
2019-06-27T03:23:37.662Z,100420.52
2019-06-27T03:26:04.941Z,100421.82
2019-06-27T03:28:49.711Z,100423.98
2019-06-27T03:30:59.579Z,100423.86
2019-06-27T03:33:26.243Z,100433.50
2019-06-27T03:35:52.672Z,100432.85
2019-06-27T03:38:19.018Z,100430.52
2019-06-27T03:40:45.381Z,100433.41
2019-06-27T03:43:11.750Z,100443.39
2019-06-27T03:45:38.254Z,100449.65
2019-06-27T03:48:04.593Z,100446.59
2019-06-27T03:50:31.012Z,100451.96
2019-06-27T03:52:57.477Z,100448.77
2019-06-27T03:55:23.847Z,100452.65
2019-06-27T03:57:50.159Z,100455.09
2019-06-27T04:00:25.064Z,100459.54
2019-06-27T04:02:51.395Z,100465.44
2019-06-27T04:05:17.736Z,100474.74
2019-06-27T04:07:44.404Z,100469.09
2019-06-27T04:10:10.941Z,100470.80
2019-06-27T04:12:37.309Z,100468.84
2019-06-27T04:15:06.576Z,100467.02
2019-06-27T04:17:34.341Z,100477.50
2019-06-27T04:20:00.832Z,100479.02
2019-06-27T04:22:27.188Z,100484.63
2019-06-27T04:24:53.607Z,100487.28
2019-06-27T04:27:19.941Z,100484.89
2019-06-27T04:29:46.341Z,100495.94
2019-06-27T04:32:12.762Z,100497.66
2019-06-27T04:34:39.431Z,100496.33
2019-06-27T04:37:05.766Z,100497.83
2019-06-27T04:39:32.202Z,100501.00
2019-06-27T04:41:58.890Z,100495.66
2019-06-27T04:44:25.338Z,100495.16
2019-06-27T04:46:51.660Z,100508.97
2019-06-27T04:49:17.996Z,100508.88
2019-06-27T04:51:44.703Z,100503.63
2019-06-27T04:54:11.015Z,100510.39
2019-06-27T04:56:37.386Z,100508.77
2019-06-27T04:59:03.685Z,100503.98
2019-06-27T05:01:35.697Z,100501.61
2019-06-27T05:04:02.024Z,100512.81
2019-06-27T05:06:28.345Z,100507.83
2019-06-27T05:08:54.691Z,100514.48
2019-06-27T05:11:21.021Z,100511.64
2019-06-27T05:13:47.381Z,100518.46
2019-06-27T05:16:13.779Z,100514.45
2019-06-27T05:18:40.197Z,100512.02
2019-06-27T05:21:06.585Z,100506.86
2019-06-27T05:23:32.965Z,100519.27
2019-06-27T05:25:59.304Z,100513.12
2019-06-27T05:28:25.634Z,100519.37
2019-06-27T05:30:52.122Z,100518.02
2019-06-27T05:33:18.985Z,100520.99
2019-06-27T05:35:45.314Z,100520.27
2019-06-27T05:38:11.685Z,100523.91
2019-06-27T05:40:37.972Z,100523.80
2019-06-27T05:43:04.297Z,100529.98
2019-06-27T05:45:30.628Z,100535.28
2019-06-27T05:47:56.970Z,100533.15
2019-06-27T05:50:24.599Z,100535.46
2019-06-27T05:52:50.956Z,100534.59
2019-06-27T05:55:17.296Z,100537.05
2019-06-27T05:57:43.647Z,100536.17
2019-06-27T06:00:26.703Z,100540.23
2019-06-27T06:02:38.828Z,100544.80
2019-06-27T06:05:06.592Z,100547.48
2019-06-27T06:07:32.980Z,100550.55
2019-06-27T06:09:59.304Z,100548.22
2019-06-27T06:12:26.047Z,100553.40
2019-06-27T06:14:52.376Z,100557.95
2019-06-27T06:17:18.710Z,100554.51
2019-06-27T06:19:45.007Z,100557.65
2019-06-27T06:22:11.337Z,100558.86
2019-06-27T06:24:39.097Z,100557.08
2019-06-27T06:27:05.410Z,100554.17
2019-06-27T06:29:31.767Z,100557.62
2019-06-27T06:31:58.089Z,100572.30
2019-06-27T06:34:24.530Z,100575.14
2019-06-27T06:36:50.864Z,100565.94
2019-06-27T06:39:17.522Z,100563.31
2019-06-27T06:41:43.874Z,100563.27
2019-06-27T06:44:11.409Z,100568.70
2019-06-27T06:46:37.790Z,100564.66
2019-06-27T06:49:04.382Z,100564.33
2019-06-27T06:51:31.045Z,100571.58
2019-06-27T06:53:58.557Z,100566.61
2019-06-27T06:56:25.225Z,100577.18
2019-06-27T06:58:51.570Z,100573.48
2019-06-27T07:01:17.900Z,100575.97
2019-06-27T07:03:44.227Z,100576.09
2019-06-27T07:06:10.622Z,100585.48
2019-06-27T07:08:37.039Z,100584.81
2019-06-27T07:11:03.463Z,100579.97
2019-06-27T07:13:29.958Z,100587.38
2019-06-27T07:15:56.294Z,100595.38
2019-06-27T07:18:22.649Z,100584.97
2019-06-27T07:20:48.975Z,100590.94
2019-06-27T07:23:15.446Z,100593.53
2019-06-27T07:25:41.991Z,100586.48
2019-06-27T07:28:08.430Z,100589.57
2019-06-27T07:30:34.760Z,100588.12
2019-06-27T07:33:02.116Z,100587.72
2019-06-27T07:35:28.427Z,100578.20
2019-06-27T07:37:55.140Z,100579.61
2019-06-27T07:40:21.496Z,100585.87
2019-06-27T07:42:47.830Z,100581.04
2019-06-27T07:45:14.659Z,100578.70
2019-06-27T07:47:41.005Z,100580.78
2019-06-27T07:50:08.043Z,100582.33
2019-06-27T07:52:34.423Z,100582.64
2019-06-27T07:55:00.807Z,100578.98
2019-06-27T07:57:28.215Z,100580.87
2019-06-27T07:59:54.833Z,100584.18
2019-06-27T08:02:21.470Z,100582.14
2019-06-27T08:04:47.790Z,100585.03
2019-06-27T08:07:14.149Z,100574.39
2019-06-27T08:09:40.491Z,100574.82
2019-06-27T08:12:06.850Z,100569.93
2019-06-27T08:14:33.173Z,100576.02
2019-06-27T08:16:59.537Z,100582.33
2019-06-27T08:19:26.015Z,100578.98
2019-06-27T08:21:52.367Z,100577.84
2019-06-27T08:24:18.737Z,100577.40
2019-06-27T08:26:45.042Z,100581.79
2019-06-27T08:29:11.516Z,100579.20
2019-06-27T08:31:50.511Z,100583.41
2019-06-27T08:34:06.076Z,100583.06
2019-06-27T08:36:32.454Z,100573.06
2019-06-27T08:38:58.756Z,100570.19
2019-06-27T08:41:25.084Z,100564.47
2019-06-27T08:43:51.403Z,100555.52
2019-06-27T08:46:17.728Z,100580.08
2019-06-27T08:48:44.053Z,100565.34
2019-06-27T08:51:10.371Z,100574.77
2019-06-27T08:53:36.691Z,100566.50
2019-06-27T08:56:03.152Z,100573.52
2019-06-27T08:58:29.485Z,100561.09
2019-06-27T09:00:55.900Z,100554.11
2019-06-27T09:03:22.209Z,100553.89
2019-06-27T09:05:48.539Z,100557.25
2019-06-27T09:08:15.176Z,100562.42
2019-06-27T09:10:41.510Z,100553.88
2019-06-27T09:13:07.860Z,100551.39
2019-06-27T09:15:34.170Z,100568.19
2019-06-27T09:18:00.511Z,100556.11
2019-06-27T09:20:26.886Z,100559.89
2019-06-27T09:22:53.630Z,100551.94
2019-06-27T09:25:19.944Z,100554.52
2019-06-27T09:27:46.298Z,100554.50
2019-06-27T09:30:13.296Z,100554.04
2019-06-27T09:32:39.632Z,100551.31
2019-06-27T09:35:06.794Z,100554.61
2019-06-27T09:37:33.117Z,100562.78
2019-06-27T09:39:59.487Z,100547.92
2019-06-27T09:42:26.955Z,100546.23
2019-06-27T09:44:53.298Z,100547.16
2019-06-27T09:47:19.610Z,100538.97
2019-06-27T09:49:45.948Z,100542.27
2019-06-27T09:52:12.266Z,100541.92
2019-06-27T09:54:38.605Z,100552.85
2019-06-27T09:57:04.944Z,100541.05
2019-06-27T09:59:32.045Z,100546.73
2019-06-27T10:01:59.370Z,100544.23
2019-06-27T10:04:25.703Z,100531.77
2019-06-27T10:06:52.176Z,100542.37
2019-06-27T10:09:18.484Z,100541.77
2019-06-27T10:11:44.833Z,100536.11
2019-06-27T10:14:11.166Z,100534.92
2019-06-27T10:16:37.468Z,100540.35
2019-06-27T10:19:03.825Z,100535.83
2019-06-27T10:21:30.113Z,100543.66
2019-06-27T10:23:56.498Z,100527.89
2019-06-27T10:26:22.804Z,100536.66
2019-06-27T10:28:49.144Z,100531.72
2019-06-27T10:31:15.464Z,100529.23
2019-06-27T10:33:41.845Z,100527.71
2019-06-27T10:36:08.606Z,100530.58
2019-06-27T10:38:34.956Z,100531.34
2019-06-27T10:41:01.270Z,100539.88
2019-06-27T10:43:28.641Z,100529.05
2019-06-27T10:45:55.016Z,100516.84
2019-06-27T10:48:21.366Z,100522.34
2019-06-27T10:50:47.747Z,100519.14
2019-06-27T10:53:14.923Z,100514.98
2019-06-27T10:55:41.795Z,100517.42
2019-06-27T10:58:08.527Z,100505.45
2019-06-27T11:00:34.864Z,100507.81
2019-06-27T11:03:14.368Z,100500.30
2019-06-27T11:05:30.626Z,100511.93
2019-06-27T11:07:58.358Z,100507.12
2019-06-27T11:10:25.070Z,100500.59
2019-06-27T11:12:51.368Z,100498.98
2019-06-27T11:15:17.964Z,100518.24
2019-06-27T11:17:44.620Z,100500.12
2019-06-27T11:20:15.126Z,100495.56
2019-06-27T11:22:40.481Z,100492.82
2019-06-27T11:25:07.021Z,100500.78
2019-06-27T11:27:33.389Z,100491.59
2019-06-27T11:29:59.712Z,100491.64
2019-06-27T11:32:26.091Z,100509.09
2019-06-27T11:34:52.549Z,100501.91
2019-06-27T11:37:18.886Z,100491.39
2019-06-27T11:39:45.228Z,100497.86
2019-06-27T11:42:11.616Z,100489.46
2019-06-27T11:44:38.012Z,100478.91
2019-06-27T11:47:04.643Z,100484.16
2019-06-27T11:49:31.005Z,100485.14
2019-06-27T11:51:57.303Z,100476.73
2019-06-27T11:54:23.692Z,100484.02
2019-06-27T11:56:50.030Z,100473.70
2019-06-27T11:59:16.352Z,100482.38
2019-06-27T12:01:42.736Z,100509.52
2019-06-27T12:04:09.364Z,100490.53
2019-06-27T12:06:35.982Z,100482.59
2019-06-27T12:09:04.322Z,100494.92
2019-06-27T12:11:33.645Z,100485.77
2019-06-27T12:14:00.115Z,100489.27
2019-06-27T12:16:26.451Z,100498.06
2019-06-27T12:18:52.762Z,100491.69
2019-06-27T12:21:19.419Z,100489.35
2019-06-27T12:23:45.797Z,100502.18
2019-06-27T12:26:12.219Z,100503.20
2019-06-27T12:28:38.567Z,100500.09
2019-06-27T12:31:19.365Z,100494.83
2019-06-27T12:33:33.664Z,100492.20
2019-06-27T12:36:00.050Z,100502.34
2019-06-27T12:38:26.567Z,100489.66
2019-06-27T12:40:52.878Z,100482.91
2019-06-27T12:43:19.256Z,100491.12
2019-06-27T12:45:45.562Z,100492.31
2019-06-27T12:48:11.918Z,100494.87
2019-06-27T12:50:38.220Z,100496.08
2019-06-27T12:53:04.556Z,100486.73
2019-06-27T12:55:30.996Z,100483.03
2019-06-27T12:57:57.364Z,100492.73
2019-06-27T13:00:24.077Z,100480.23
2019-06-27T13:02:50.409Z,100475.40
2019-06-27T13:05:20.294Z,100471.83
2019-06-27T13:07:45.004Z,100468.91
2019-06-27T13:10:12.034Z,100467.78
2019-06-27T13:12:38.773Z,100461.30
2019-06-27T13:15:06.534Z,100462.52
2019-06-27T13:17:32.860Z,100456.44
2019-06-27T13:19:59.311Z,100453.86
2019-06-27T13:22:25.698Z,100450.41
2019-06-27T13:24:52.020Z,100444.75
2019-06-27T13:27:18.362Z,100456.34
2019-06-27T13:29:44.698Z,100445.08
2019-06-27T13:32:11.479Z,100461.14
2019-06-27T13:34:40.900Z,100436.53
2019-06-27T13:37:07.241Z,100435.17
2019-06-27T13:39:33.580Z,100448.22
2019-06-27T13:41:59.904Z,100434.13
2019-06-27T13:44:26.293Z,100438.34
2019-06-27T13:46:52.627Z,100436.02
2019-06-27T13:49:19.000Z,100438.80
2019-06-27T13:51:45.394Z,100441.70
2019-06-27T13:54:11.845Z,100403.20
2019-06-27T13:56:38.206Z,100420.55
2019-06-27T13:59:04.569Z,100420.70
2019-06-27T14:01:30.889Z,100427.91
2019-06-27T14:03:57.247Z,100417.42
2019-06-27T14:06:23.702Z,100421.98
2019-06-27T14:08:50.102Z,100416.61
2019-06-27T14:11:16.456Z,100421.97
2019-06-27T14:13:42.799Z,100417.73
2019-06-27T14:16:10.390Z,100425.88
2019-06-27T14:18:38.655Z,100424.00
2019-06-27T14:21:05.007Z,100411.50
2019-06-27T14:23:31.589Z,100414.13
2019-06-27T14:25:58.304Z,100406.91
2019-06-27T14:28:24.682Z,100406.11
2019-06-27T14:30:51.010Z,100412.70
2019-06-27T14:33:17.424Z,100410.45
2019-06-27T14:35:43.741Z,100410.44
2019-06-27T14:38:10.923Z,100400.18
2019-06-27T14:40:37.370Z,100393.86
2019-06-27T14:43:03.762Z,100400.33
2019-06-27T14:45:30.083Z,100400.23
2019-06-27T14:47:56.392Z,100392.33
2019-06-27T14:50:22.772Z,100395.16
2019-06-27T14:52:49.373Z,100385.34
2019-06-27T14:55:15.938Z,100395.27
2019-06-27T14:57:42.286Z,100397.35
2019-06-27T15:00:09.458Z,100396.05
2019-06-27T15:02:35.788Z,100380.63
2019-06-27T15:05:04.348Z,100370.70
2019-06-27T15:07:36.479Z,100395.18
2019-06-27T15:10:05.519Z,100376.13
2019-06-27T15:12:35.634Z,100375.44
2019-06-27T15:15:00.126Z,100379.02
2019-06-27T15:17:26.455Z,100363.78
2019-06-27T15:19:52.818Z,100358.34
2019-06-27T15:22:19.474Z,100359.55
2019-06-27T15:24:46.111Z,100354.03
2019-06-27T15:27:12.452Z,100357.78
2019-06-27T15:29:38.850Z,100348.95
2019-06-27T15:32:05.200Z,100361.09
2019-06-27T15:34:31.553Z,100341.98
2019-06-27T15:36:58.061Z,100367.66
2019-06-27T15:39:24.827Z,100345.50
2019-06-27T15:41:51.463Z,100351.06
2019-06-27T15:44:20.623Z,100345.61
2019-06-27T15:46:46.540Z,100355.72
2019-06-27T15:49:12.900Z,100346.73
2019-06-27T15:51:39.789Z,100348.95
2019-06-27T15:54:06.386Z,100339.57
2019-06-27T15:56:32.723Z,100337.42
2019-06-27T15:58:59.096Z,100339.44
2019-06-27T16:01:25.421Z,100343.77
2019-06-27T16:03:51.803Z,100345.25
2019-06-27T16:06:18.139Z,100340.19
2019-06-27T16:08:44.457Z,100334.58
2019-06-27T16:11:10.812Z,100338.03
2019-06-27T16:13:37.124Z,100331.61
2019-06-27T16:16:03.508Z,100330.95
2019-06-27T16:18:29.828Z,100329.10
2019-06-27T16:20:56.159Z,100327.93
2019-06-27T16:23:22.472Z,100324.81
2019-06-27T16:25:49.112Z,100326.16
2019-06-27T16:28:15.448Z,100325.39
2019-06-27T16:30:42.292Z,100326.06
2019-06-27T16:33:08.641Z,100333.64
2019-06-27T16:35:35.314Z,100323.31
2019-06-27T16:38:01.667Z,100326.31
2019-06-27T16:40:31.313Z,100319.14
2019-06-27T16:42:57.676Z,100328.25
2019-06-27T16:45:24.137Z,100317.48
2019-06-27T16:47:50.464Z,100323.90
2019-06-27T16:50:17.454Z,100327.41
2019-06-27T16:52:43.761Z,100334.14
2019-06-27T16:55:10.556Z,100318.41
2019-06-27T16:57:37.190Z,100319.80
2019-06-27T17:00:04.352Z,100324.44
2019-06-27T17:02:31.148Z,100317.28
2019-06-27T17:04:57.491Z,100335.87
2019-06-27T17:07:24.150Z,100328.77
2019-06-27T17:09:50.461Z,100321.53
2019-06-27T17:12:16.883Z,100319.59
2019-06-27T17:14:43.575Z,100313.70
2019-06-27T17:17:09.955Z,100327.45
2019-06-27T17:19:36.291Z,100310.80
2019-06-27T17:22:02.723Z,100308.18
2019-06-27T17:24:29.236Z,100312.90
2019-06-27T17:26:55.593Z,100313.34
2019-06-27T17:29:21.926Z,100317.55
2019-06-27T17:31:48.315Z,100312.26
2019-06-27T17:34:14.775Z,100316.45
2019-06-27T17:36:53.585Z,100304.56
2019-06-27T17:39:09.406Z,100305.23
2019-06-27T17:41:35.754Z,100318.61
2019-06-27T17:44:02.087Z,100311.77
2019-06-27T17:46:28.436Z,100319.47
2019-06-27T17:48:54.785Z,100328.45
2019-06-27T17:51:21.145Z,100334.73
2019-06-27T17:53:47.493Z,100324.02
2019-06-27T17:56:13.876Z,100325.44
2019-06-27T17:58:40.181Z,100326.66
2019-06-27T18:01:06.525Z,100325.73
2019-06-27T18:03:32.848Z,100330.64
2019-06-27T18:05:59.210Z,100323.78
2019-06-27T18:08:25.603Z,100321.59
2019-06-27T18:10:53.047Z,100319.20
2019-06-27T18:13:19.791Z,100324.03
2019-06-27T18:15:46.411Z,100326.45
2019-06-27T18:18:13.120Z,100325.92
2019-06-27T18:20:39.541Z,100320.13
2019-06-27T18:23:05.908Z,100323.42
2019-06-27T18:25:32.231Z,100327.73
2019-06-27T18:27:58.914Z,100326.57
2019-06-27T18:30:25.244Z,100323.44
2019-06-27T18:32:51.637Z,100320.34
2019-06-27T18:35:18.120Z,100317.22
2019-06-27T18:37:44.606Z,100318.36
2019-06-27T18:40:13.899Z,100312.95
2019-06-27T18:42:40.574Z,100326.34
2019-06-27T18:45:07.488Z,100328.64
2019-06-27T18:47:33.871Z,100319.98
2019-06-27T18:50:00.230Z,100321.51
2019-06-27T18:52:26.615Z,100323.77
2019-06-27T18:54:53.007Z,100316.09
2019-06-27T18:57:19.417Z,100317.05
2019-06-27T18:59:47.009Z,100318.05
2019-06-27T19:02:16.434Z,100324.06
2019-06-27T19:04:43.247Z,100325.39
2019-06-27T19:07:09.756Z,100332.27
2019-06-27T19:09:36.082Z,100330.60
2019-06-27T19:12:02.673Z,100326.31
2019-06-27T19:14:29.649Z,100334.14
2019-06-27T19:16:56.097Z,100322.60
2019-06-27T19:19:33.337Z,100325.55
2019-06-27T19:22:04.330Z,100327.40
2019-06-27T19:24:32.574Z,100336.88
2019-06-27T19:26:59.416Z,100335.73
2019-06-27T19:29:26.156Z,100345.69
2019-06-27T19:31:52.560Z,100355.20
2019-06-27T19:34:18.893Z,100363.59
2019-06-27T19:36:45.251Z,100359.00
2019-06-27T19:39:12.830Z,100364.11
2019-06-27T19:41:40.291Z,100365.87
2019-06-27T19:44:07.522Z,100371.43
2019-06-27T19:46:33.828Z,100367.25
2019-06-27T19:49:00.175Z,100369.84
2019-06-27T19:51:26.515Z,100369.22
2019-06-27T19:53:52.875Z,100370.28
2019-06-27T19:56:19.252Z,100369.48
2019-06-27T19:58:45.650Z,100380.35
2019-06-27T20:01:11.983Z,100368.66
2019-06-27T20:03:38.368Z,100376.35
2019-06-27T20:06:04.710Z,100380.64
2019-06-27T20:08:31.059Z,100384.82
2019-06-27T20:10:57.466Z,100382.96
2019-06-27T20:13:24.111Z,100390.04
2019-06-27T20:15:50.478Z,100390.94
2019-06-27T20:18:17.002Z,100385.53
2019-06-27T20:20:43.318Z,100388.20
2019-06-27T20:23:09.817Z,100392.94
2019-06-27T20:25:36.211Z,100389.78
2019-06-27T20:28:02.597Z,100397.34
2019-06-27T20:30:29.465Z,100395.41
2019-06-27T20:32:55.820Z,100396.45
2019-06-27T20:35:23.270Z,100399.75
2019-06-27T20:37:49.816Z,100401.56
2019-06-27T20:40:16.795Z,100407.50
2019-06-27T20:42:43.159Z,100405.63
2019-06-27T20:45:11.952Z,100414.80
2019-06-27T20:47:39.273Z,100409.09
2019-06-27T20:50:06.914Z,100415.77
2019-06-27T20:52:33.643Z,100409.39
2019-06-27T20:54:59.962Z,100414.31
2019-06-27T20:57:26.290Z,100421.69
2019-06-27T20:59:53.710Z,100413.11
2019-06-27T21:02:20.052Z,100419.22
2019-06-27T21:04:46.659Z,100417.75
2019-06-27T21:07:13.009Z,100419.92
2019-06-27T21:09:39.467Z,100426.33
2019-06-27T21:12:05.774Z,100428.35
2019-06-27T21:14:32.514Z,100428.22
2019-06-27T21:16:58.846Z,100433.55
2019-06-27T21:19:25.305Z,100433.77
2019-06-27T21:21:51.641Z,100435.09
2019-06-27T21:24:18.521Z,100450.27
2019-06-27T21:26:44.868Z,100447.94
2019-06-27T21:29:11.216Z,100450.95
2019-06-27T21:31:38.026Z,100459.95
2019-06-27T21:34:04.383Z,100461.64
2019-06-27T21:36:30.931Z,100464.00
2019-06-27T21:39:07.023Z,100468.16
2019-06-27T21:41:25.486Z,100470.34
2019-06-27T21:43:51.989Z,100472.52
2019-06-27T21:46:18.293Z,100471.50
2019-06-27T21:48:44.771Z,100474.19
2019-06-27T21:51:11.127Z,100478.50
2019-06-27T21:53:37.527Z,100474.33
2019-06-27T21:56:03.920Z,100478.33
2019-06-27T21:58:30.469Z,100486.51
2019-06-27T22:00:57.373Z,100486.30
2019-06-27T22:03:24.254Z,100488.44
2019-06-27T22:05:50.687Z,100483.94
2019-06-27T22:08:17.028Z,100485.30
2019-06-27T22:10:43.340Z,100486.43
2019-06-27T22:13:09.675Z,100482.25
2019-06-27T22:15:36.056Z,100490.89
2019-06-27T22:18:02.714Z,100491.42
2019-06-27T22:20:29.039Z,100492.06
2019-06-27T22:22:55.371Z,100493.06
2019-06-27T22:25:21.769Z,100496.22
2019-06-27T22:27:48.125Z,100497.52
2019-06-27T22:30:15.788Z,100501.47
2019-06-27T22:32:42.149Z,100494.36
2019-06-27T22:35:10.508Z,100492.34
2019-06-27T22:37:37.813Z,100494.52
2019-06-27T22:40:24.584Z,100499.03
2019-06-27T22:43:10.082Z,100497.97
2019-06-27T22:45:54.827Z,100500.63
2019-06-27T22:48:21.082Z,100498.75
2019-06-27T22:50:47.511Z,100507.49
2019-06-27T22:53:15.773Z,100503.75
2019-06-27T22:55:42.101Z,100496.44
2019-06-27T22:58:08.429Z,100505.28
2019-06-27T23:00:34.951Z,100508.36
2019-06-27T23:03:01.292Z,100507.38
2019-06-27T23:05:28.055Z,100505.48
2019-06-27T23:07:56.147Z,100502.13
2019-06-27T23:10:22.518Z,100509.19
2019-06-27T23:12:49.245Z,100503.25
2019-06-27T23:15:15.670Z,100508.84
2019-06-27T23:17:42.060Z,100509.39
2019-06-27T23:20:08.760Z,100514.69
2019-06-27T23:22:35.123Z,100512.43
2019-06-27T23:25:01.422Z,100516.36
2019-06-27T23:27:27.793Z,100508.87
2019-06-27T23:29:54.469Z,100502.27
2019-06-27T23:32:20.821Z,100502.49
2019-06-27T23:34:47.230Z,100509.48
2019-06-27T23:37:13.865Z,100510.19
2019-06-27T23:39:40.201Z,100517.34
2019-06-27T23:42:06.628Z,100520.47
2019-06-27T23:44:32.968Z,100519.13
2019-06-27T23:46:59.437Z,100522.06
2019-06-27T23:49:25.772Z,100520.77
2019-06-27T23:51:52.167Z,100523.67
2019-06-27T23:54:18.527Z,100528.72
2019-06-27T23:56:44.891Z,100524.40
2019-06-27T23:59:11.256Z,100526.16
